createdAt,value
2018-07-01T00:00:11.025Z,13.49
2018-07-01T00:01:10.996Z,13.49
2018-07-01T00:02:10.977Z,13.51
2018-07-01T00:03:10.963Z,13.55
2018-07-01T00:04:10.947Z,13.48
2018-07-01T00:05:10.923Z,13.48
2018-07-01T00:06:10.906Z,13.48
2018-07-01T00:07:10.893Z,13.44
2018-07-01T00:08:10.872Z,13.49
2018-07-01T00:09:10.861Z,13.49
2018-07-01T00:10:10.847Z,13.48
2018-07-01T00:11:10.820Z,13.55
2018-07-01T00:12:10.803Z,13.42
2018-07-01T00:13:10.789Z,13.45
2018-07-01T00:14:10.766Z,13.30
2018-07-01T00:15:10.758Z,13.32
2018-07-01T00:16:10.732Z,13.19
2018-07-01T00:17:10.716Z,13.22
2018-07-01T00:18:10.698Z,13.23
2018-07-01T00:19:10.679Z,13.19
2018-07-01T00:20:10.659Z,13.17
2018-07-01T00:21:10.645Z,13.12
2018-07-01T00:22:10.626Z,13.10
2018-07-01T00:23:10.608Z,13.14
2018-07-01T00:24:10.594Z,13.12
2018-07-01T00:25:10.575Z,13.12
2018-07-01T00:26:10.570Z,13.11
2018-07-01T00:27:10.537Z,13.11
2018-07-01T00:28:10.523Z,13.12
2018-07-01T00:29:10.507Z,13.12
2018-07-01T00:30:10.486Z,13.14
2018-07-01T00:31:10.472Z,13.12
2018-07-01T00:32:10.451Z,13.12
2018-07-01T00:33:10.432Z,13.10
2018-07-01T00:34:10.415Z,13.12
2018-07-01T00:35:10.399Z,13.07
2018-07-01T00:36:10.381Z,13.08
2018-07-01T00:37:10.369Z,13.08
2018-07-01T00:38:10.344Z,12.97
2018-07-01T00:39:10.326Z,12.97
2018-07-01T00:40:10.307Z,13.03
2018-07-01T00:41:10.290Z,13.04
2018-07-01T00:42:10.272Z,13.05
2018-07-01T00:43:10.253Z,13.01
2018-07-01T00:44:10.237Z,12.97
2018-07-01T00:45:10.218Z,12.95
2018-07-01T00:46:10.199Z,12.92
2018-07-01T00:47:10.183Z,12.90
2018-07-01T00:48:10.164Z,12.95
2018-07-01T00:49:10.149Z,12.87
2018-07-01T00:50:10.128Z,12.89
2018-07-01T00:51:10.112Z,12.82
2018-07-01T00:52:10.093Z,12.82
2018-07-01T00:53:10.076Z,12.79
2018-07-01T00:54:10.058Z,12.87
2018-07-01T00:55:10.038Z,12.82
2018-07-01T00:56:10.026Z,12.86
2018-07-01T00:57:10.004Z,12.74
2018-07-01T00:58:09.985Z,12.75
2018-07-01T00:59:09.967Z,12.77
2018-07-01T01:00:09.951Z,12.74
2018-07-01T01:01:09.930Z,12.77
2018-07-01T01:02:09.913Z,12.72
2018-07-01T01:03:09.894Z,12.70
2018-07-01T01:04:09.875Z,12.71
2018-07-01T01:05:09.860Z,12.72
2018-07-01T01:06:09.841Z,12.72
2018-07-01T01:07:09.826Z,12.70
2018-07-01T01:08:09.804Z,12.64
2018-07-01T01:09:09.786Z,12.60
2018-07-01T01:10:09.767Z,12.60
2018-07-01T01:11:09.750Z,12.60
2018-07-01T01:12:09.732Z,12.65
2018-07-01T01:13:09.714Z,12.62
2018-07-01T01:14:09.694Z,12.62
2018-07-01T01:15:09.676Z,12.67
2018-07-01T01:16:09.663Z,12.60
2018-07-01T01:17:09.641Z,12.62
2018-07-01T01:18:09.622Z,12.59
2018-07-01T01:19:09.604Z,12.62
2018-07-01T01:20:09.589Z,12.62
2018-07-01T01:21:09.567Z,12.62
2018-07-01T01:22:09.553Z,12.64
2018-07-01T01:23:09.533Z,12.56
2018-07-01T01:24:09.513Z,12.46
2018-07-01T01:25:09.494Z,12.47
2018-07-01T01:26:09.480Z,12.52
2018-07-01T01:27:09.465Z,12.54
2018-07-01T01:28:09.441Z,12.49
2018-07-01T01:29:09.420Z,12.52
2018-07-01T01:30:09.402Z,12.46
2018-07-01T01:31:09.385Z,12.46
2018-07-01T01:32:09.366Z,12.53
2018-07-01T01:33:09.350Z,12.39
2018-07-01T01:34:09.333Z,12.39
2018-07-01T01:35:09.311Z,12.39
2018-07-01T01:36:09.294Z,12.45
2018-07-01T01:37:09.276Z,12.38
2018-07-01T01:38:09.257Z,12.39
2018-07-01T01:39:09.239Z,12.34
2018-07-01T01:40:09.220Z,12.42
2018-07-01T01:41:09.203Z,12.38
2018-07-01T01:42:09.183Z,12.34
2018-07-01T01:43:09.172Z,12.34
2018-07-01T01:44:09.146Z,12.19
2018-07-01T01:45:09.126Z,12.23
2018-07-01T01:46:09.109Z,12.28
2018-07-01T01:47:09.091Z,12.35
2018-07-01T01:48:09.071Z,12.32
2018-07-01T01:49:09.057Z,12.31
2018-07-01T01:50:09.034Z,12.32
2018-07-01T01:51:09.021Z,12.20
2018-07-01T01:52:08.997Z,12.37
2018-07-01T01:53:08.980Z,12.19
2018-07-01T01:54:08.960Z,12.29
2018-07-01T01:55:08.943Z,12.35
2018-07-01T01:56:08.924Z,12.29
2018-07-01T01:57:08.907Z,12.27
2018-07-01T01:58:08.890Z,12.28
2018-07-01T01:59:08.871Z,12.24
2018-07-01T02:00:08.852Z,12.32
2018-07-01T02:01:08.831Z,12.19
2018-07-01T02:02:08.816Z,12.23
2018-07-01T02:03:08.794Z,12.19
2018-07-01T02:04:08.776Z,12.21
2018-07-01T02:05:08.759Z,12.21
2018-07-01T02:06:08.739Z,12.21
2018-07-01T02:07:08.728Z,12.19
2018-07-01T02:08:08.710Z,12.27
2018-07-01T02:09:08.685Z,12.23
2018-07-01T02:10:08.664Z,12.14
2018-07-01T02:11:08.650Z,12.27
2018-07-01T02:12:08.627Z,12.29
2018-07-01T02:13:08.611Z,12.20
2018-07-01T02:14:08.589Z,12.17
2018-07-01T02:15:08.571Z,12.21
2018-07-01T02:16:08.555Z,12.16
2018-07-01T02:17:08.536Z,12.14
2018-07-01T02:18:08.517Z,12.20
2018-07-01T02:19:08.495Z,12.19
2018-07-01T02:20:08.475Z,12.20
2018-07-01T02:21:08.461Z,12.07
2018-07-01T02:22:09.856Z,12.16
2018-07-01T02:23:08.420Z,12.04
2018-07-01T02:24:08.404Z,12.07
2018-07-01T02:25:08.386Z,12.09
2018-07-01T02:26:08.363Z,12.07
2018-07-01T02:27:08.345Z,12.05
2018-07-01T02:28:08.329Z,12.04
2018-07-01T02:29:08.307Z,11.90
2018-07-01T02:30:08.288Z,11.98
2018-07-01T02:31:08.271Z,12.01
2018-07-01T02:32:08.252Z,12.01
2018-07-01T02:33:08.232Z,11.99
2018-07-01T02:34:08.213Z,11.91
2018-07-01T02:35:08.194Z,11.91
2018-07-01T02:36:08.177Z,11.91
2018-07-01T02:37:08.164Z,11.99
2018-07-01T02:38:08.139Z,11.88
2018-07-01T02:39:08.117Z,11.95
2018-07-01T02:40:08.100Z,11.99
2018-07-01T02:41:08.081Z,11.90
2018-07-01T02:42:08.062Z,11.91
2018-07-01T02:43:08.043Z,11.94
2018-07-01T02:44:08.025Z,11.96
2018-07-01T02:45:08.006Z,11.90
2018-07-01T02:46:08.063Z,11.82
2018-07-01T02:47:07.979Z,11.83
2018-07-01T02:48:07.957Z,11.73
2018-07-01T02:49:07.934Z,11.80
2018-07-01T02:50:07.910Z,11.82
2018-07-01T02:51:07.891Z,11.80
2018-07-01T02:52:07.873Z,11.78
2018-07-01T02:53:07.855Z,11.73
2018-07-01T02:54:07.839Z,11.69
2018-07-01T02:55:07.820Z,11.65
2018-07-01T02:56:07.797Z,11.73
2018-07-01T02:57:07.778Z,11.65
2018-07-01T02:58:07.769Z,11.64
2018-07-01T02:59:07.745Z,11.61
2018-07-01T03:00:07.723Z,11.65
2018-07-01T03:01:07.702Z,11.58
2018-07-01T03:02:07.683Z,11.58
2018-07-01T03:03:07.664Z,11.49
2018-07-01T03:04:07.647Z,11.44
2018-07-01T03:05:07.645Z,11.47
2018-07-01T03:06:07.611Z,11.47
2018-07-01T03:07:07.588Z,11.46
2018-07-01T03:08:07.569Z,11.46
2018-07-01T03:09:07.553Z,11.55
2018-07-01T03:10:07.532Z,11.47
2018-07-01T03:11:07.513Z,11.47
2018-07-01T03:12:07.495Z,11.49
2018-07-01T03:13:07.475Z,11.36
2018-07-01T03:14:07.463Z,11.35
2018-07-01T03:15:07.436Z,11.33
2018-07-01T03:16:07.416Z,11.37
2018-07-01T03:17:07.401Z,11.32
2018-07-01T03:18:07.379Z,11.40
2018-07-01T03:19:07.360Z,11.37
2018-07-01T03:20:07.340Z,11.25
2018-07-01T03:21:07.321Z,11.21
2018-07-01T03:22:07.300Z,11.21
2018-07-01T03:23:07.282Z,11.32
2018-07-01T03:24:07.263Z,11.29
2018-07-01T03:25:07.244Z,11.21
2018-07-01T03:26:07.223Z,11.27
2018-07-01T03:27:07.209Z,11.22
2018-07-01T03:28:07.196Z,11.22
2018-07-01T03:29:07.173Z,11.22
2018-07-01T03:30:07.149Z,11.27
2018-07-01T03:31:07.130Z,11.27
2018-07-01T03:32:07.108Z,11.27
2018-07-01T03:33:07.094Z,11.22
2018-07-01T03:34:07.074Z,11.21
2018-07-01T03:35:07.050Z,11.24
2018-07-01T03:36:07.034Z,11.27
2018-07-01T03:37:07.014Z,11.29
2018-07-01T03:38:07.003Z,11.14
2018-07-01T03:39:06.974Z,11.14
2018-07-01T03:40:06.956Z,11.17
2018-07-01T03:41:06.934Z,11.14
2018-07-01T03:42:06.917Z,11.14
2018-07-01T03:43:06.896Z,11.22
2018-07-01T03:44:06.877Z,11.24
2018-07-01T03:45:06.858Z,11.14
2018-07-01T03:46:06.837Z,11.25
2018-07-01T03:47:06.820Z,11.29
2018-07-01T03:48:06.799Z,11.25
2018-07-01T03:49:06.781Z,11.22
2018-07-01T03:50:06.817Z,11.19
2018-07-01T03:51:06.740Z,11.21
2018-07-01T03:52:06.725Z,11.19
2018-07-01T03:53:06.703Z,11.15
2018-07-01T03:54:06.682Z,11.22
2018-07-01T03:55:06.663Z,11.22
2018-07-01T03:56:06.648Z,11.22
2018-07-01T03:57:06.626Z,11.25
2018-07-01T03:58:06.605Z,11.25
2018-07-01T03:59:06.587Z,11.27
2018-07-01T04:00:06.567Z,11.24
2018-07-01T04:01:06.553Z,11.24
2018-07-01T04:02:06.528Z,11.21
2018-07-01T04:03:06.508Z,11.19
2018-07-01T04:04:06.489Z,11.28
2018-07-01T04:05:06.470Z,11.25
2018-07-01T04:06:06.451Z,11.27
2018-07-01T04:07:06.435Z,11.22
2018-07-01T04:08:06.410Z,11.22
2018-07-01T04:09:06.393Z,11.28
2018-07-01T04:10:06.373Z,11.32
2018-07-01T04:11:06.355Z,11.35
2018-07-01T04:12:06.335Z,11.46
2018-07-01T04:13:06.316Z,11.46
2018-07-01T04:14:06.298Z,11.49
2018-07-01T04:15:06.278Z,11.49
2018-07-01T04:16:06.257Z,11.46
2018-07-01T04:17:06.237Z,11.52
2018-07-01T04:18:06.217Z,11.54
2018-07-01T04:19:06.198Z,11.60
2018-07-01T04:20:06.187Z,11.60
2018-07-01T04:21:06.160Z,11.55
2018-07-01T04:22:06.141Z,11.62
2018-07-01T04:23:06.123Z,11.60
2018-07-01T04:24:06.100Z,11.67
2018-07-01T04:25:06.085Z,11.67
2018-07-01T04:26:06.062Z,11.72
2018-07-01T04:27:06.045Z,11.67
2018-07-01T04:28:06.023Z,11.64
2018-07-01T04:29:06.006Z,11.65
2018-07-01T04:30:05.984Z,11.65
2018-07-01T04:31:05.980Z,11.79
2018-07-01T04:32:05.948Z,11.76
2018-07-01T04:33:05.929Z,11.78
2018-07-01T04:34:05.907Z,11.83
2018-07-01T04:35:05.888Z,11.80
2018-07-01T04:36:05.867Z,11.91
2018-07-01T04:37:05.855Z,11.94
2018-07-01T04:38:05.830Z,12.01
2018-07-01T04:39:05.812Z,11.94
2018-07-01T04:40:05.791Z,12.07
2018-07-01T04:41:05.776Z,12.14
2018-07-01T04:42:05.754Z,12.07
2018-07-01T04:43:05.734Z,12.10
2018-07-01T04:44:05.716Z,12.12
2018-07-01T04:45:05.699Z,12.19
2018-07-01T04:46:05.681Z,12.19
2018-07-01T04:47:05.663Z,12.27
2018-07-01T04:48:05.637Z,12.20
2018-07-01T04:49:05.620Z,12.29
2018-07-01T04:50:05.599Z,12.34
2018-07-01T04:51:05.580Z,12.41
2018-07-01T04:52:05.565Z,12.38
2018-07-01T04:53:05.543Z,12.42
2018-07-01T04:54:05.525Z,12.49
2018-07-01T04:55:05.529Z,12.47
2018-07-01T04:56:05.489Z,12.53
2018-07-01T04:57:05.465Z,12.62
2018-07-01T04:58:05.447Z,12.64
2018-07-01T04:59:05.433Z,12.64
2018-07-01T05:00:05.412Z,12.62
2018-07-01T05:01:05.398Z,12.65
2018-07-01T05:02:05.448Z,12.68
2018-07-01T05:03:05.354Z,12.75
2018-07-01T05:04:05.343Z,12.74
2018-07-01T05:05:05.318Z,12.78
2018-07-01T05:06:05.297Z,12.77
2018-07-01T05:07:05.277Z,12.75
2018-07-01T05:08:05.260Z,12.79
2018-07-01T05:09:05.241Z,12.89
2018-07-01T05:10:05.222Z,12.87
2018-07-01T05:11:05.204Z,12.87
2018-07-01T05:12:05.185Z,12.92
2018-07-01T05:13:05.168Z,12.90
2018-07-01T05:14:05.146Z,12.97
2018-07-01T05:15:05.127Z,13.07
2018-07-01T05:16:05.113Z,13.11
2018-07-01T05:17:05.102Z,13.14
2018-07-01T05:18:05.073Z,13.20
2018-07-01T05:19:05.057Z,13.17
2018-07-01T05:20:05.033Z,13.25
2018-07-01T05:21:05.021Z,13.33
2018-07-01T05:22:04.996Z,13.14
2018-07-01T05:23:04.981Z,13.30
2018-07-01T05:24:04.959Z,13.28
2018-07-01T05:25:04.941Z,13.45
2018-07-01T05:26:04.927Z,13.46
2018-07-01T05:27:04.903Z,13.48
2018-07-01T05:28:04.888Z,13.63
2018-07-01T05:29:04.867Z,13.64
2018-07-01T05:30:04.851Z,13.69
2018-07-01T05:31:04.829Z,13.77
2018-07-01T05:32:04.812Z,13.84
2018-07-01T05:33:04.793Z,13.73
2018-07-01T05:34:04.776Z,13.81
2018-07-01T05:35:04.782Z,13.89
2018-07-01T05:36:04.737Z,13.91
2018-07-01T05:37:04.720Z,13.96
2018-07-01T05:38:04.705Z,14.06
2018-07-01T05:39:04.682Z,14.09
2018-07-01T05:40:04.667Z,14.06
2018-07-01T05:41:04.648Z,14.15
2018-07-01T05:42:04.630Z,14.24
2018-07-01T05:43:04.610Z,14.37
2018-07-01T05:44:04.591Z,14.43
2018-07-01T05:45:04.579Z,14.46
2018-07-01T05:46:04.556Z,14.58
2018-07-01T05:47:04.538Z,14.58
2018-07-01T05:48:04.521Z,14.62
2018-07-01T05:49:04.502Z,14.65
2018-07-01T05:50:04.483Z,14.70
2018-07-01T05:51:04.465Z,14.77
2018-07-01T05:52:04.450Z,14.86
2018-07-01T05:53:04.429Z,14.84
2018-07-01T05:54:04.410Z,14.95
2018-07-01T05:55:04.396Z,14.94
2018-07-01T05:56:04.377Z,15.03
2018-07-01T05:57:04.427Z,15.14
2018-07-01T05:58:04.345Z,15.20
2018-07-01T05:59:04.323Z,15.32
2018-07-01T06:00:04.310Z,15.27
2018-07-01T06:01:04.286Z,15.35
2018-07-01T06:02:04.270Z,15.47
2018-07-01T06:03:04.254Z,15.46
2018-07-01T06:04:04.235Z,15.57
2018-07-01T06:05:04.215Z,15.50
2018-07-01T06:06:04.198Z,15.59
2018-07-01T06:07:04.182Z,15.65
2018-07-01T06:08:04.168Z,15.72
2018-07-01T06:09:04.146Z,15.78
2018-07-01T06:10:04.131Z,15.84
2018-07-01T06:11:04.120Z,15.89
2018-07-01T06:12:04.096Z,16.07
2018-07-01T06:13:04.078Z,16.07
2018-07-01T06:14:04.080Z,16.11
2018-07-01T06:15:04.044Z,16.17
2018-07-01T06:16:04.026Z,16.23
2018-07-01T06:17:04.013Z,16.27
2018-07-01T06:18:03.994Z,16.42
2018-07-01T06:19:03.981Z,16.31
2018-07-01T06:20:03.959Z,16.43
2018-07-01T06:21:03.943Z,16.42
2018-07-01T06:22:03.932Z,16.48
2018-07-01T06:23:03.914Z,16.48
2018-07-01T06:24:03.893Z,16.50
2018-07-01T06:25:03.875Z,16.66
2018-07-01T06:26:03.857Z,16.64
2018-07-01T06:27:03.840Z,16.73
2018-07-01T06:28:03.819Z,16.83
2018-07-01T06:29:03.805Z,16.86
2018-07-01T06:30:03.789Z,16.88
2018-07-01T06:31:03.773Z,16.98
2018-07-01T06:32:03.757Z,17.00
2018-07-01T06:33:03.739Z,17.15
2018-07-01T06:34:03.727Z,17.16
2018-07-01T06:35:03.704Z,17.23
2018-07-01T06:36:03.689Z,17.34
2018-07-01T06:37:03.674Z,17.44
2018-07-01T06:38:03.654Z,17.63
2018-07-01T06:39:03.643Z,17.75
2018-07-01T06:40:03.623Z,17.75
2018-07-01T06:41:03.610Z,17.92
2018-07-01T06:42:03.684Z,18.08
2018-07-01T06:43:03.572Z,18.17
2018-07-01T06:44:03.558Z,18.26
2018-07-01T06:45:03.548Z,18.44
2018-07-01T06:46:03.528Z,18.54
2018-07-01T06:47:03.512Z,18.66
2018-07-01T06:48:03.501Z,18.81
2018-07-01T06:49:03.482Z,18.90
2018-07-01T06:50:03.466Z,18.91
2018-07-01T06:51:03.449Z,19.00
2018-07-01T06:52:03.437Z,19.10
2018-07-01T06:53:03.418Z,19.29
2018-07-01T06:54:03.402Z,19.31
2018-07-01T06:55:03.392Z,19.39
2018-07-01T06:56:03.373Z,19.47
2018-07-01T06:57:03.359Z,19.50
2018-07-01T06:58:03.344Z,19.58
2018-07-01T06:59:03.327Z,19.71
2018-07-01T07:00:03.319Z,19.81
2018-07-01T07:01:03.306Z,19.78
2018-07-01T07:02:03.286Z,19.92
2018-07-01T07:03:03.272Z,19.81
2018-07-01T07:04:03.255Z,19.96
2018-07-01T07:05:03.240Z,19.96
2018-07-01T07:06:03.225Z,19.94
2018-07-01T07:07:03.210Z,19.92
2018-07-01T07:08:03.265Z,19.88
2018-07-01T07:09:03.185Z,19.94
2018-07-01T07:10:03.171Z,20.01
2018-07-01T07:11:03.152Z,19.99
2018-07-01T07:12:03.147Z,19.95
2018-07-01T07:13:03.128Z,19.91
2018-07-01T07:14:03.109Z,19.80
2018-07-01T07:15:03.097Z,19.91
2018-07-01T07:16:03.083Z,19.78
2018-07-01T07:17:03.068Z,19.78
2018-07-01T07:18:03.055Z,19.83
2018-07-01T07:19:03.043Z,19.84
2018-07-01T07:20:03.027Z,19.81
2018-07-01T07:21:03.017Z,19.87
2018-07-01T07:22:02.998Z,19.84
2018-07-01T07:23:02.985Z,19.76
2018-07-01T07:24:02.984Z,19.78
2018-07-01T07:25:02.967Z,19.76
2018-07-01T07:26:02.944Z,19.66
2018-07-01T07:27:02.933Z,19.73
2018-07-01T07:28:02.916Z,19.83
2018-07-01T07:29:02.905Z,19.83
2018-07-01T07:30:02.892Z,19.88
2018-07-01T07:31:02.876Z,19.96
2018-07-01T07:32:02.907Z,20.05
2018-07-01T07:33:02.848Z,20.02
2018-07-01T07:34:02.832Z,20.11
2018-07-01T07:35:02.822Z,20.23
2018-07-01T07:36:02.806Z,20.20
2018-07-01T07:37:02.791Z,20.14
2018-07-01T07:38:02.777Z,20.16
2018-07-01T07:39:02.765Z,20.17
2018-07-01T07:40:02.758Z,20.14
2018-07-01T07:41:02.737Z,20.28
2018-07-01T07:42:02.724Z,20.11
2018-07-01T07:43:02.709Z,20.11
2018-07-01T07:44:02.701Z,20.18
2018-07-01T07:45:02.855Z,20.28
2018-07-01T07:46:02.669Z,20.20
2018-07-01T07:47:02.657Z,20.28
2018-07-01T07:48:02.641Z,20.24
2018-07-01T07:49:02.628Z,20.36
2018-07-01T07:50:02.618Z,20.43
2018-07-01T07:51:02.603Z,20.39
2018-07-01T07:52:02.589Z,20.55
2018-07-01T07:53:02.574Z,20.52
2018-07-01T07:54:02.566Z,20.57
2018-07-01T07:55:02.548Z,20.59
2018-07-01T07:56:02.534Z,20.59
2018-07-01T07:57:02.522Z,20.77
2018-07-01T07:58:02.513Z,20.95
2018-07-01T07:59:02.498Z,21.06
2018-07-01T08:00:02.486Z,21.46
2018-07-01T08:01:02.467Z,21.80
2018-07-01T08:02:02.573Z,22.03
2018-07-01T08:03:02.452Z,22.05
2018-07-01T08:04:02.430Z,22.36
2018-07-01T08:05:02.417Z,22.21
2018-07-01T08:06:02.406Z,22.57
2018-07-01T08:07:02.393Z,22.31
2018-07-01T08:08:02.377Z,22.80
2018-07-01T08:09:02.364Z,23.93
2018-07-01T08:10:02.352Z,25.05
2018-07-01T08:11:02.338Z,25.99
2018-07-01T08:12:02.325Z,26.88
2018-07-01T08:13:02.328Z,27.60
2018-07-01T08:14:02.301Z,28.18
2018-07-01T08:15:02.291Z,28.95
2018-07-01T08:16:02.279Z,29.48
2018-07-01T08:17:02.263Z,30.01
2018-07-01T08:18:02.259Z,30.49
2018-07-01T08:19:02.238Z,30.83
2018-07-01T08:20:02.228Z,31.07
2018-07-01T08:21:02.216Z,31.23
2018-07-01T08:22:02.267Z,31.50
2018-07-01T08:23:02.196Z,31.53
2018-07-01T08:24:02.198Z,32.01
2018-07-01T08:25:02.186Z,31.86
2018-07-01T08:26:02.169Z,31.38
2018-07-01T08:27:02.160Z,30.26
2018-07-01T08:28:02.155Z,29.34
2018-07-01T08:29:02.261Z,28.48
2018-07-01T08:30:02.135Z,28.25
2018-07-01T08:31:02.131Z,27.81
2018-07-01T08:32:02.124Z,27.28
2018-07-01T08:33:02.113Z,26.92
2018-07-01T08:34:02.108Z,26.47
2018-07-01T08:35:02.104Z,27.07
2018-07-01T08:36:02.089Z,27.62
2018-07-01T08:37:02.080Z,28.76
2018-07-01T08:38:02.069Z,28.96
2018-07-01T08:39:02.069Z,28.25
2018-07-01T08:40:02.054Z,27.77
2018-07-01T08:41:02.046Z,27.36
2018-07-01T08:42:02.046Z,26.88
2018-07-01T08:43:02.030Z,26.67
2018-07-01T08:44:02.024Z,27.10
2018-07-01T08:45:02.017Z,27.93
2018-07-01T08:46:02.015Z,28.88
2018-07-01T08:47:02.011Z,29.48
2018-07-01T08:48:01.994Z,30.20
2018-07-01T08:49:01.989Z,30.84
2018-07-01T08:50:01.985Z,31.39
2018-07-01T08:51:01.975Z,31.88
2018-07-01T08:52:01.982Z,32.50
2018-07-01T08:53:01.964Z,33.12
2018-07-01T08:54:01.957Z,33.53
2018-07-01T08:55:02.005Z,33.86
2018-07-01T08:56:01.950Z,34.21
2018-07-01T08:57:01.944Z,33.87
2018-07-01T08:58:01.937Z,33.91
2018-07-01T08:59:01.931Z,32.92
2018-07-01T09:00:01.929Z,32.03
2018-07-01T09:01:01.933Z,31.25
2018-07-01T09:02:01.930Z,30.86
2018-07-01T09:03:01.922Z,30.91
2018-07-01T09:04:01.915Z,31.35
2018-07-01T09:05:01.908Z,32.14
2018-07-01T09:06:01.901Z,32.40
2018-07-01T09:07:01.897Z,32.89
2018-07-01T09:08:01.906Z,33.12
2018-07-01T09:09:01.891Z,33.49
2018-07-01T09:10:01.887Z,33.86
2018-07-01T09:11:01.883Z,33.88
2018-07-01T09:12:01.882Z,33.95
2018-07-01T09:13:01.917Z,34.12
2018-07-01T09:14:01.873Z,34.16
2018-07-01T09:15:01.870Z,34.40
2018-07-01T09:16:01.867Z,34.64
2018-07-01T09:17:01.942Z,34.59
2018-07-01T09:18:01.869Z,34.61
2018-07-01T09:19:01.862Z,34.77
2018-07-01T09:20:01.857Z,34.50
2018-07-01T09:21:01.853Z,33.72
2018-07-01T09:22:01.855Z,32.94
2018-07-01T09:23:01.852Z,32.59
2018-07-01T09:24:01.848Z,32.75
2018-07-01T09:25:01.846Z,32.78
2018-07-01T09:26:01.845Z,32.70
2018-07-01T09:27:01.859Z,32.93
2018-07-01T09:28:01.837Z,33.38
2018-07-01T09:29:01.837Z,33.37
2018-07-01T09:30:01.852Z,32.92
2018-07-01T09:31:01.830Z,32.32
2018-07-01T09:32:01.836Z,31.65
2018-07-01T09:33:01.827Z,30.92
2018-07-01T09:34:01.827Z,30.17
2018-07-01T09:35:01.825Z,29.68
2018-07-01T09:36:01.818Z,29.34
2018-07-01T09:37:01.817Z,28.98
2018-07-01T09:38:01.814Z,28.83
2018-07-01T09:39:01.818Z,28.64
2018-07-01T09:40:01.809Z,28.36
2018-07-01T09:41:01.809Z,28.14
2018-07-01T09:42:01.807Z,28.11
2018-07-01T09:43:01.800Z,27.90
2018-07-01T09:44:01.801Z,27.75
2018-07-01T09:45:01.797Z,27.54
2018-07-01T09:46:01.788Z,27.36
2018-07-01T09:47:01.795Z,27.55
2018-07-01T09:48:01.781Z,28.12
2018-07-01T09:49:01.781Z,28.41
2018-07-01T09:50:01.774Z,28.95
2018-07-01T09:51:01.768Z,29.42
2018-07-01T09:52:01.767Z,29.68
2018-07-01T09:53:01.778Z,29.82
2018-07-01T09:54:01.762Z,30.04
2018-07-01T09:55:01.761Z,30.35
2018-07-01T09:56:01.757Z,30.53
2018-07-01T09:57:01.753Z,30.94
2018-07-01T09:58:01.745Z,31.20
2018-07-01T09:59:01.744Z,31.54
2018-07-01T10:00:01.741Z,31.68
2018-07-01T10:01:01.765Z,31.32
2018-07-01T10:02:01.738Z,31.13
2018-07-01T10:03:01.743Z,31.13
2018-07-01T10:04:01.738Z,30.99
2018-07-01T10:05:01.729Z,30.77
2018-07-01T10:06:01.723Z,30.55
2018-07-01T10:07:01.722Z,30.29
2018-07-01T10:08:01.719Z,30.11
2018-07-01T10:09:01.715Z,29.51
2018-07-01T10:10:01.713Z,28.98
2018-07-01T10:11:01.720Z,28.76
2018-07-01T10:12:01.814Z,28.66
2018-07-01T10:13:01.704Z,28.59
2018-07-01T10:14:01.697Z,28.66
2018-07-01T10:15:01.701Z,28.51
2018-07-01T10:16:01.695Z,28.30
2018-07-01T10:17:01.694Z,28.39
2018-07-01T10:18:01.684Z,27.96
2018-07-01T10:19:01.678Z,27.77
2018-07-01T10:20:01.677Z,27.70
2018-07-01T10:21:01.681Z,27.41
2018-07-01T10:22:01.678Z,27.29
2018-07-01T10:23:01.661Z,27.22
2018-07-01T10:24:01.661Z,27.00
2018-07-01T10:25:01.655Z,26.99
2018-07-01T10:26:01.659Z,26.88
2018-07-01T10:27:01.646Z,26.70
2018-07-01T10:28:01.642Z,26.65
2018-07-01T10:29:01.642Z,26.52
2018-07-01T10:30:01.633Z,26.52
2018-07-01T10:31:01.626Z,26.32
2018-07-01T10:32:01.620Z,26.26
2018-07-01T10:33:01.617Z,26.18
2018-07-01T10:34:01.611Z,26.21
2018-07-01T10:35:01.611Z,26.18
2018-07-01T10:36:01.607Z,26.13
2018-07-01T10:37:01.653Z,26.12
2018-07-01T10:38:01.586Z,26.20
2018-07-01T10:39:01.584Z,26.20
2018-07-01T10:40:01.579Z,26.17
2018-07-01T10:41:01.574Z,26.20
2018-07-01T10:42:01.566Z,26.43
2018-07-01T10:43:01.559Z,26.36
2018-07-01T10:44:01.555Z,26.55
2018-07-01T10:45:01.548Z,26.73
2018-07-01T10:46:01.542Z,26.80
2018-07-01T10:47:01.533Z,26.85
2018-07-01T10:48:01.530Z,26.77
2018-07-01T10:49:01.527Z,26.72
2018-07-01T10:50:01.515Z,26.66
2018-07-01T10:51:01.509Z,26.50
2018-07-01T10:52:01.504Z,26.36
2018-07-01T10:53:01.502Z,26.26
2018-07-01T10:54:01.496Z,26.15
2018-07-01T10:55:01.488Z,26.15
2018-07-01T10:56:01.488Z,26.23
2018-07-01T10:57:01.477Z,26.06
2018-07-01T10:58:01.470Z,26.40
2018-07-01T10:59:01.463Z,27.37
2018-07-01T11:00:01.460Z,28.25
2018-07-01T11:01:01.444Z,29.08
2018-07-01T11:02:01.446Z,29.37
2018-07-01T11:03:01.539Z,29.26
2018-07-01T11:04:01.431Z,29.23
2018-07-01T11:05:01.423Z,29.06
2018-07-01T11:06:01.469Z,28.74
2018-07-01T11:07:01.409Z,28.41
2018-07-01T11:08:01.407Z,28.19
2018-07-01T11:09:01.400Z,27.96
2018-07-01T11:10:01.406Z,27.85
2018-07-01T11:11:01.388Z,27.65
2018-07-01T11:12:01.390Z,27.36
2018-07-01T11:13:01.382Z,27.12
2018-07-01T11:14:01.376Z,26.95
2018-07-01T11:15:01.370Z,26.94
2018-07-01T11:16:01.363Z,26.88
2018-07-01T11:17:01.353Z,26.88
2018-07-01T11:18:01.352Z,26.76
2018-07-01T11:19:01.345Z,26.76
2018-07-01T11:20:01.358Z,27.02
2018-07-01T11:21:01.332Z,27.09
2018-07-01T11:22:01.322Z,27.21
2018-07-01T11:23:01.321Z,27.22
2018-07-01T11:24:01.315Z,27.28
2018-07-01T11:25:01.304Z,27.34
2018-07-01T11:26:01.298Z,27.40
2018-07-01T11:27:01.538Z,27.47
2018-07-01T11:28:01.288Z,27.60
2018-07-01T11:29:01.280Z,27.55
2018-07-01T11:30:01.275Z,27.66
2018-07-01T11:31:01.269Z,27.66
2018-07-01T11:32:01.262Z,27.81
2018-07-01T11:33:01.261Z,27.59
2018-07-01T11:34:01.248Z,27.75
2018-07-01T11:35:01.259Z,27.67
2018-07-01T11:36:01.238Z,27.67
2018-07-01T11:37:01.233Z,27.78
2018-07-01T11:38:01.225Z,27.75
2018-07-01T11:39:01.223Z,27.75
2018-07-01T11:40:01.211Z,27.70
2018-07-01T11:41:01.208Z,27.74
2018-07-01T11:42:01.200Z,27.78
2018-07-01T11:43:01.201Z,27.87
2018-07-01T11:44:01.188Z,27.78
2018-07-01T11:45:01.184Z,27.63
2018-07-01T11:46:01.177Z,27.50
2018-07-01T11:47:01.170Z,27.31
2018-07-01T11:48:01.163Z,27.06
2018-07-01T11:49:01.156Z,26.95
2018-07-01T11:50:01.152Z,26.81
2018-07-01T11:51:01.144Z,26.82
2018-07-01T11:52:01.135Z,26.63
2018-07-01T11:53:01.131Z,26.63
2018-07-01T11:54:01.123Z,26.54
2018-07-01T11:55:01.118Z,26.52
2018-07-01T11:56:01.111Z,26.50
2018-07-01T11:57:01.104Z,26.44
2018-07-01T11:58:01.147Z,26.57
2018-07-01T11:59:01.092Z,26.72
2018-07-01T12:00:01.119Z,26.80
2018-07-01T12:01:01.077Z,26.80
2018-07-01T12:02:01.068Z,26.97
2018-07-01T12:03:01.059Z,27.02
2018-07-01T12:04:01.055Z,27.14
2018-07-01T12:05:16.205Z,27.40
2018-07-01T12:06:01.041Z,27.62
2018-07-01T12:07:01.045Z,27.94
2018-07-01T12:08:01.028Z,28.21
2018-07-01T12:09:01.028Z,28.49
2018-07-01T12:10:01.014Z,28.80
2018-07-01T12:11:01.009Z,28.93
2018-07-01T12:12:01.016Z,29.11
2018-07-01T12:13:01.006Z,29.36
2018-07-01T12:14:00.988Z,29.64
2018-07-01T12:15:00.982Z,30.00
2018-07-01T12:16:00.980Z,30.29
2018-07-01T12:17:00.975Z,30.49
2018-07-01T12:18:00.968Z,30.54
2018-07-01T12:19:00.965Z,30.37
2018-07-01T12:20:00.956Z,30.38
2018-07-01T12:21:00.949Z,30.45
2018-07-01T12:22:00.945Z,30.55
2018-07-01T12:23:00.938Z,30.54
2018-07-01T12:24:00.933Z,30.26
2018-07-01T12:25:00.931Z,30.34
2018-07-01T12:26:00.920Z,30.23
2018-07-01T12:27:00.922Z,30.26
2018-07-01T12:28:00.913Z,30.42
2018-07-01T12:29:00.908Z,30.69
2018-07-01T12:30:00.898Z,30.97
2018-07-01T12:31:00.895Z,30.98
2018-07-01T12:32:00.892Z,30.84
2018-07-01T12:33:00.889Z,30.67
2018-07-01T12:34:00.879Z,30.58
2018-07-01T12:35:00.884Z,30.42
2018-07-01T12:36:00.875Z,30.17
2018-07-01T12:37:00.868Z,29.87
2018-07-01T12:38:00.861Z,29.67
2018-07-01T12:39:00.858Z,29.68
2018-07-01T12:40:00.864Z,29.80
2018-07-01T12:41:00.846Z,30.02
2018-07-01T12:42:00.935Z,30.01
2018-07-01T12:43:00.842Z,30.05
2018-07-01T12:44:00.831Z,29.98
2018-07-01T12:45:00.826Z,30.02
2018-07-01T12:46:00.822Z,29.92
2018-07-01T12:47:00.823Z,29.78
2018-07-01T12:48:00.815Z,29.52
2018-07-01T12:49:00.806Z,29.33
2018-07-01T12:50:00.804Z,29.28
2018-07-01T12:51:00.795Z,29.27
2018-07-01T12:52:00.794Z,29.08